sensor_id;sensor_type;location;lat;lon;timestamp;P1;durP1;ratioP1;P2;durP2;ratioP2
58101;SDS011;52034;51.926;6.320;2022-12-19T00:01:27;63.87;;;31.73;;
58101;SDS011;52034;51.926;6.320;2022-12-19T00:02:25;61.63;;;31.83;;
58101;SDS011;52034;51.926;6.320;2022-12-19T00:03:25;60.63;;;33.00;;
58101;SDS011;52034;51.926;6.320;2022-12-19T00:04:26;56.53;;;30.47;;
58101;SDS011;52034;51.926;6.320;2022-12-19T00:05:26;62.73;;;33.47;;
58101;SDS011;52034;51.926;6.320;2022-12-19T00:06:27;64.27;;;33.30;;
58101;SDS011;52034;51.926;6.320;2022-12-19T00:07:29;57.92;;;30.88;;
58101;SDS011;52034;51.926;6.320;2022-12-19T00:08:29;59.57;;;31.27;;
58101;SDS011;52034;51.926;6.320;2022-12-19T00:09:31;59.88;;;31.30;;
58101;SDS011;52034;51.926;6.320;2022-12-19T00:10:32;57.83;;;29.37;;
58101;SDS011;52034;51.926;6.320;2022-12-19T00:11:32;60.07;;;28.73;;
58101;SDS011;52034;51.926;6.320;2022-12-19T00:12:32;56.57;;;30.83;;
58101;SDS011;52034;51.926;6.320;2022-12-19T00:13:33;52.67;;;28.87;;
58101;SDS011;52034;51.926;6.320;2022-12-19T00:14:33;57.90;;;29.80;;
58101;SDS011;52034;51.926;6.320;2022-12-19T00:15:34;61.33;;;32.40;;
58101;SDS011;52034;51.926;6.320;2022-12-19T00:16:35;58.17;;;30.90;;
58101;SDS011;52034;51.926;6.320;2022-12-19T00:17:36;59.30;;;32.70;;
58101;SDS011;52034;51.926;6.320;2022-12-19T00:18:37;55.40;;;30.70;;
58101;SDS011;52034;51.926;6.320;2022-12-19T00:19:38;58.55;;;30.40;;
58101;SDS011;52034;51.926;6.320;2022-12-19T00:20:39;55.60;;;29.20;;
58101;SDS011;52034;51.926;6.320;2022-12-19T00:21:39;58.27;;;30.47;;
58101;SDS011;52034;51.926;6.320;2022-12-19T00:22:39;52.23;;;28.03;;
58101;SDS011;52034;51.926;6.320;2022-12-19T00:23:40;49.73;;;27.20;;
58101;SDS011;52034;51.926;6.320;2022-12-19T00:24:40;51.73;;;26.47;;
58101;SDS011;52034;51.926;6.320;2022-12-19T00:25:40;52.63;;;27.23;;
58101;SDS011;52034;51.926;6.320;2022-12-19T00:26:43;52.33;;;27.95;;
58101;SDS011;52034;51.926;6.320;2022-12-19T00:27:45;53.45;;;29.17;;
58101;SDS011;52034;51.926;6.320;2022-12-19T00:28:46;51.77;;;28.47;;
58101;SDS011;52034;51.926;6.320;2022-12-19T00:29:49;54.47;;;29.00;;
58101;SDS011;52034;51.926;6.320;2022-12-19T00:30:49;59.00;;;31.10;;
58101;SDS011;52034;51.926;6.320;2022-12-19T00:31:49;59.90;;;32.10;;
58101;SDS011;52034;51.926;6.320;2022-12-19T00:32:50;56.47;;;30.77;;
58101;SDS011;52034;51.926;6.320;2022-12-19T00:33:50;54.60;;;29.70;;
58101;SDS011;52034;51.926;6.320;2022-12-19T00:34:51;59.00;;;32.00;;
58101;SDS011;52034;51.926;6.320;2022-12-19T00:35:56;57.17;;;31.50;;
58101;SDS011;52034;51.926;6.320;2022-12-19T00:36:57;57.65;;;32.20;;
58101;SDS011;52034;51.926;6.320;2022-12-19T00:37:57;57.17;;;31.37;;
58101;SDS011;52034;51.926;6.320;2022-12-19T00:38:58;55.37;;;31.10;;
58101;SDS011;52034;51.926;6.320;2022-12-19T00:40:00;60.92;;;31.70;;
58101;SDS011;52034;51.926;6.320;2022-12-19T00:41:14;61.80;;;33.30;;
58101;SDS011;52034;51.926;6.320;2022-12-19T00:42:16;55.78;;;31.60;;
58101;SDS011;52034;51.926;6.320;2022-12-19T00:43:16;63.60;;;31.53;;
58101;SDS011;52034;51.926;6.320;2022-12-19T00:44:16;61.00;;;32.57;;
58101;SDS011;52034;51.926;6.320;2022-12-19T00:45:17;60.67;;;31.70;;
58101;SDS011;52034;51.926;6.320;2022-12-19T00:46:18;62.60;;;32.85;;
58101;SDS011;52034;51.926;6.320;2022-12-19T00:47:19;66.57;;;32.40;;
58101;SDS011;52034;51.926;6.320;2022-12-19T00:48:19;52.60;;;29.93;;
58101;SDS011;52034;51.926;6.320;2022-12-19T00:49:20;52.70;;;28.63;;
58101;SDS011;52034;51.926;6.320;2022-12-19T00:50:20;57.40;;;30.47;;
58101;SDS011;52034;51.926;6.320;2022-12-19T00:51:21;59.50;;;31.93;;
58101;SDS011;52034;51.926;6.320;2022-12-19T00:52:23;62.90;;;31.45;;
58101;SDS011;52034;51.926;6.320;2022-12-19T00:53:24;63.57;;;31.50;;
58101;SDS011;52034;51.926;6.320;2022-12-19T00:54:24;55.53;;;30.50;;
58101;SDS011;52034;51.926;6.320;2022-12-19T00:55:25;55.53;;;29.27;;
58101;SDS011;52034;51.926;6.320;2022-12-19T00:56:32;55.77;;;30.00;;
58101;SDS011;52034;51.926;6.320;2022-12-19T00:57:34;56.95;;;30.35;;
58101;SDS011;52034;51.926;6.320;2022-12-19T00:58:35;50.60;;;25.13;;
58101;SDS011;52034;51.926;6.320;2022-12-19T00:59:35;56.63;;;29.47;;
58101;SDS011;52034;51.926;6.320;2022-12-19T01:00:35;56.43;;;28.67;;
58101;SDS011;52034;51.926;6.320;2022-12-19T01:01:37;53.67;;;25.97;;
58101;SDS011;52034;51.926;6.320;2022-12-19T01:02:39;60.88;;;29.83;;
58101;SDS011;52034;51.926;6.320;2022-12-19T01:03:40;56.43;;;29.87;;
58101;SDS011;52034;51.926;6.320;2022-12-19T01:04:41;53.08;;;27.88;;
58101;SDS011;52034;51.926;6.320;2022-12-19T01:05:44;54.95;;;29.17;;
58101;SDS011;52034;51.926;6.320;2022-12-19T01:06:44;51.97;;;27.57;;
58101;SDS011;52034;51.926;6.320;2022-12-19T01:07:44;50.23;;;28.63;;
58101;SDS011;52034;51.926;6.320;2022-12-19T01:08:45;56.30;;;27.87;;
58101;SDS011;52034;51.926;6.320;2022-12-19T01:09:45;56.13;;;30.30;;
58101;SDS011;52034;51.926;6.320;2022-12-19T01:10:46;59.20;;;32.37;;
58101;SDS011;52034;51.926;6.320;2022-12-19T01:11:48;64.20;;;32.60;;
58101;SDS011;52034;51.926;6.320;2022-12-19T01:13:07;58.67;;;32.28;;
58101;SDS011;52034;51.926;6.320;2022-12-19T01:14:08;59.43;;;31.60;;
58101;SDS011;52034;51.926;6.320;2022-12-19T01:15:14;66.07;;;32.83;;
58101;SDS011;52034;51.926;6.320;2022-12-19T01:16:16;69.03;;;34.42;;
58101;SDS011;52034;51.926;6.320;2022-12-19T01:17:16;66.23;;;32.50;;
58101;SDS011;52034;51.926;6.320;2022-12-19T01:18:17;64.47;;;31.77;;
58101;SDS011;52034;51.926;6.320;2022-12-19T01:19:20;62.03;;;32.75;;
58101;SDS011;52034;51.926;6.320;2022-12-19T01:20:20;61.77;;;33.23;;
58101;SDS011;52034;51.926;6.320;2022-12-19T01:21:21;66.37;;;33.87;;
58101;SDS011;52034;51.926;6.320;2022-12-19T01:22:21;68.30;;;35.00;;
58101;SDS011;52034;51.926;6.320;2022-12-19T01:23:21;65.73;;;35.60;;
58101;SDS011;52034;51.926;6.320;2022-12-19T01:24:22;67.43;;;35.73;;
58101;SDS011;52034;51.926;6.320;2022-12-19T01:25:22;69.07;;;36.80;;
58101;SDS011;52034;51.926;6.320;2022-12-19T01:26:23;71.23;;;38.13;;
58101;SDS011;52034;51.926;6.320;2022-12-19T01:27:23;67.07;;;33.00;;
58101;SDS011;52034;51.926;6.320;2022-12-19T01:28:24;70.27;;;34.17;;
58101;SDS011;52034;51.926;6.320;2022-12-19T01:29:26;78.50;;;38.13;;
58101;SDS011;52034;51.926;6.320;2022-12-19T01:30:27;67.63;;;34.05;;
58101;SDS011;52034;51.926;6.320;2022-12-19T01:31:28;67.67;;;34.30;;
58101;SDS011;52034;51.926;6.320;2022-12-19T01:32:28;66.13;;;34.77;;
58101;SDS011;52034;51.926;6.320;2022-12-19T01:33:31;75.88;;;37.50;;
58101;SDS011;52034;51.926;6.320;2022-12-19T01:34:31;66.33;;;33.27;;
58101;SDS011;52034;51.926;6.320;2022-12-19T01:35:32;69.63;;;34.67;;
58101;SDS011;52034;51.926;6.320;2022-12-19T01:36:32;66.67;;;36.37;;
58101;SDS011;52034;51.926;6.320;2022-12-19T01:37:34;66.20;;;33.75;;
58101;SDS011;52034;51.926;6.320;2022-12-19T01:38:35;67.90;;;34.97;;
58101;SDS011;52034;51.926;6.320;2022-12-19T01:39:36;67.50;;;36.88;;
58101;SDS011;52034;51.926;6.320;2022-12-19T01:40:37;66.75;;;36.00;;
58101;SDS011;52034;51.926;6.320;2022-12-19T01:41:37;72.50;;;35.70;;
58101;SDS011;52034;51.926;6.320;2022-12-19T01:42:38;65.20;;;33.03;;
58101;SDS011;52034;51.926;6.320;2022-12-19T01:43:55;61.20;;;32.93;;
58101;SDS011;52034;51.926;6.320;2022-12-19T01:45:02;60.70;;;31.65;;
58101;SDS011;52034;51.926;6.320;2022-12-19T01:46:09;63.97;;;32.80;;
58101;SDS011;52034;51.926;6.320;2022-12-19T01:47:13;60.97;;;31.30;;
58101;SDS011;52034;51.926;6.320;2022-12-19T01:48:15;65.93;;;34.07;;
58101;SDS011;52034;51.926;6.320;2022-12-19T01:49:32;65.28;;;33.08;;
58101;SDS011;52034;51.926;6.320;2022-12-19T01:50:36;70.85;;;35.17;;
58101;SDS011;52034;51.926;6.320;2022-12-19T01:51:46;62.08;;;31.40;;
58101;SDS011;52034;51.926;6.320;2022-12-19T01:52:48;62.33;;;34.08;;
58101;SDS011;52034;51.926;6.320;2022-12-19T01:53:51;58.88;;;31.33;;
58101;SDS011;52034;51.926;6.320;2022-12-19T01:54:57;60.15;;;31.35;;
58101;SDS011;52034;51.926;6.320;2022-12-19T01:55:58;67.43;;;31.43;;
58101;SDS011;52034;51.926;6.320;2022-12-19T01:57:01;64.03;;;30.20;;
58101;SDS011;52034;51.926;6.320;2022-12-19T01:58:06;56.25;;;28.98;;
58101;SDS011;52034;51.926;6.320;2022-12-19T01:59:09;57.70;;;30.38;;
58101;SDS011;52034;51.926;6.320;2022-12-19T02:00:16;58.55;;;30.40;;
58101;SDS011;52034;51.926;6.320;2022-12-19T02:01:17;60.10;;;31.50;;
58101;SDS011;52034;51.926;6.320;2022-12-19T02:02:18;56.57;;;29.80;;
58101;SDS011;52034;51.926;6.320;2022-12-19T02:03:24;60.85;;;30.38;;
58101;SDS011;52034;51.926;6.320;2022-12-19T02:04:27;58.20;;;28.27;;
58101;SDS011;52034;51.926;6.320;2022-12-19T02:05:28;52.00;;;25.73;;
58101;SDS011;52034;51.926;6.320;2022-12-19T02:06:31;62.45;;;31.67;;
58101;SDS011;52034;51.926;6.320;2022-12-19T02:07:34;56.08;;;28.67;;
58101;SDS011;52034;51.926;6.320;2022-12-19T02:08:36;57.97;;;28.02;;
58101;SDS011;52034;51.926;6.320;2022-12-19T02:09:39;54.65;;;28.83;;
58101;SDS011;52034;51.926;6.320;2022-12-19T02:10:39;57.33;;;29.83;;
58101;SDS011;52034;51.926;6.320;2022-12-19T02:11:40;52.63;;;27.97;;
58101;SDS011;52034;51.926;6.320;2022-12-19T02:12:41;61.20;;;33.97;;
58101;SDS011;52034;51.926;6.320;2022-12-19T02:13:43;55.20;;;27.02;;
58101;SDS011;52034;51.926;6.320;2022-12-19T02:14:44;60.65;;;30.90;;
58101;SDS011;52034;51.926;6.320;2022-12-19T02:15:51;52.80;;;27.85;;
58101;SDS011;52034;51.926;6.320;2022-12-19T02:17:19;50.42;;;29.08;;
58101;SDS011;52034;51.926;6.320;2022-12-19T02:18:36;61.03;;;30.38;;
58101;SDS011;52034;51.926;6.320;2022-12-19T02:20:06;60.53;;;30.63;;
58101;SDS011;52034;51.926;6.320;2022-12-19T02:29:13;55.97;;;30.38;;
58101;SDS011;52034;51.926;6.320;2022-12-19T02:31:52;56.00;;;29.42;;
58101;SDS011;52034;51.926;6.320;2022-12-19T02:33:18;56.25;;;28.88;;
58101;SDS011;52034;51.926;6.320;2022-12-19T02:34:30;56.10;;;28.83;;
58101;SDS011;52034;51.926;6.320;2022-12-19T02:35:42;63.70;;;33.03;;
58101;SDS011;52034;51.926;6.320;2022-12-19T02:36:54;60.80;;;31.75;;
58101;SDS011;52034;51.926;6.320;2022-12-19T02:39:07;60.63;;;32.17;;
58101;SDS011;52034;51.926;6.320;2022-12-19T02:40:33;63.15;;;31.58;;
58101;SDS011;52034;51.926;6.320;2022-12-19T02:41:50;60.88;;;30.02;;
58101;SDS011;52034;51.926;6.320;2022-12-19T02:42:59;62.00;;;30.80;;
58101;SDS011;52034;51.926;6.320;2022-12-19T02:44:01;56.65;;;29.17;;
58101;SDS011;52034;51.926;6.320;2022-12-19T02:45:04;58.80;;;30.20;;
58101;SDS011;52034;51.926;6.320;2022-12-19T02:46:08;60.80;;;32.05;;
58101;SDS011;52034;51.926;6.320;2022-12-19T02:47:11;60.38;;;32.95;;
58101;SDS011;52034;51.926;6.320;2022-12-19T02:48:13;58.65;;;30.77;;
58101;SDS011;52034;51.926;6.320;2022-12-19T02:49:15;57.17;;;29.88;;
58101;SDS011;52034;51.926;6.320;2022-12-19T02:50:15;59.97;;;31.03;;
58101;SDS011;52034;51.926;6.320;2022-12-19T02:51:16;56.43;;;30.67;;
58101;SDS011;52034;51.926;6.320;2022-12-19T02:53:22;58.13;;;29.42;;
58101;SDS011;52034;51.926;6.320;2022-12-19T02:54:22;55.03;;;28.07;;
58101;SDS011;52034;51.926;6.320;2022-12-19T02:55:23;57.33;;;28.60;;
58101;SDS011;52034;51.926;6.320;2022-12-19T03:00:21;58.88;;;30.63;;
58101;SDS011;52034;51.926;6.320;2022-12-19T03:01:31;58.92;;;31.45;;
58101;SDS011;52034;51.926;6.320;2022-12-19T03:04:23;60.60;;;32.97;;
58101;SDS011;52034;51.926;6.320;2022-12-19T03:06:54;62.65;;;32.58;;
58101;SDS011;52034;51.926;6.320;2022-12-19T03:10:51;58.05;;;29.48;;
58101;SDS011;52034;51.926;6.320;2022-12-19T03:12:02;54.38;;;28.90;;
58101;SDS011;52034;51.926;6.320;2022-12-19T03:13:14;59.13;;;31.45;;
58101;SDS011;52034;51.926;6.320;2022-12-19T03:14:21;63.33;;;32.22;;
58101;SDS011;52034;51.926;6.320;2022-12-19T03:15:26;65.55;;;32.42;;
58101;SDS011;52034;51.926;6.320;2022-12-19T03:16:27;58.80;;;32.83;;
58101;SDS011;52034;51.926;6.320;2022-12-19T03:17:28;62.33;;;28.92;;
58101;SDS011;52034;51.926;6.320;2022-12-19T03:18:35;52.50;;;24.77;;
58101;SDS011;52034;51.926;6.320;2022-12-19T03:19:36;48.72;;;24.73;;
58101;SDS011;52034;51.926;6.320;2022-12-19T03:20:42;50.72;;;25.75;;
58101;SDS011;52034;51.926;6.320;2022-12-19T03:21:47;56.03;;;29.23;;
58101;SDS011;52034;51.926;6.320;2022-12-19T03:22:48;57.78;;;30.17;;
58101;SDS011;52034;51.926;6.320;2022-12-19T03:23:49;56.13;;;30.90;;
58101;SDS011;52034;51.926;6.320;2022-12-19T03:24:52;58.17;;;31.35;;
58101;SDS011;52034;51.926;6.320;2022-12-19T03:25:53;58.63;;;30.80;;
58101;SDS011;52034;51.926;6.320;2022-12-19T03:27:01;57.28;;;27.90;;
58101;SDS011;52034;51.926;6.320;2022-12-19T03:28:09;59.70;;;28.88;;
58101;SDS011;52034;51.926;6.320;2022-12-19T03:30:20;53.42;;;27.48;;
58101;SDS011;52034;51.926;6.320;2022-12-19T03:31:22;58.67;;;30.33;;
58101;SDS011;52034;51.926;6.320;2022-12-19T03:32:26;53.55;;;29.88;;
58101;SDS011;52034;51.926;6.320;2022-12-19T03:33:30;57.35;;;31.17;;
58101;SDS011;52034;51.926;6.320;2022-12-19T03:34:39;56.85;;;28.23;;
58101;SDS011;52034;51.926;6.320;2022-12-19T03:36:46;56.15;;;28.55;;
58101;SDS011;52034;51.926;6.320;2022-12-19T03:37:51;54.80;;;27.48;;
58101;SDS011;52034;51.926;6.320;2022-12-19T03:38:58;52.78;;;27.90;;
58101;SDS011;52034;51.926;6.320;2022-12-19T03:40:07;56.78;;;30.17;;
58101;SDS011;52034;51.926;6.320;2022-12-19T03:41:12;49.33;;;25.90;;
58101;SDS011;52034;51.926;6.320;2022-12-19T03:42:15;53.35;;;26.58;;
58101;SDS011;52034;51.926;6.320;2022-12-19T03:43:36;58.90;;;31.70;;
58101;SDS011;52034;51.926;6.320;2022-12-19T03:44:39;56.15;;;29.92;;
58101;SDS011;52034;51.926;6.320;2022-12-19T03:45:49;52.95;;;28.77;;
58101;SDS011;52034;51.926;6.320;2022-12-19T03:47:01;53.92;;;28.02;;
58101;SDS011;52034;51.926;6.320;2022-12-19T03:48:26;55.00;;;29.23;;
58101;SDS011;52034;51.926;6.320;2022-12-19T03:49:28;58.78;;;29.58;;
58101;SDS011;52034;51.926;6.320;2022-12-19T03:50:30;54.00;;;27.33;;
58101;SDS011;52034;51.926;6.320;2022-12-19T03:51:36;56.42;;;29.65;;
58101;SDS011;52034;51.926;6.320;2022-12-19T03:52:47;54.67;;;29.80;;
58101;SDS011;52034;51.926;6.320;2022-12-19T03:54:01;58.40;;;28.77;;
58101;SDS011;52034;51.926;6.320;2022-12-19T03:56:25;56.33;;;29.38;;
58101;SDS011;52034;51.926;6.320;2022-12-19T03:57:36;59.40;;;30.73;;
58101;SDS011;52034;51.926;6.320;2022-12-19T03:58:42;54.45;;;27.88;;
58101;SDS011;52034;51.926;6.320;2022-12-19T03:59:53;61.80;;;31.02;;
58101;SDS011;52034;51.926;6.320;2022-12-19T04:00:59;50.15;;;25.98;;
58101;SDS011;52034;51.926;6.320;2022-12-19T04:02:02;56.80;;;29.90;;
58101;SDS011;52034;51.926;6.320;2022-12-19T04:03:04;51.40;;;27.75;;
58101;SDS011;52034;51.926;6.320;2022-12-19T04:04:05;53.70;;;29.90;;
58101;SDS011;52034;51.926;6.320;2022-12-19T04:05:12;50.97;;;26.10;;
58101;SDS011;52034;51.926;6.320;2022-12-19T04:06:18;53.00;;;26.88;;
58101;SDS011;52034;51.926;6.320;2022-12-19T04:07:19;55.85;;;29.80;;
58101;SDS011;52034;51.926;6.320;2022-12-19T04:08:21;52.80;;;27.25;;
58101;SDS011;52034;51.926;6.320;2022-12-19T04:10:24;56.47;;;27.65;;
58101;SDS011;52034;51.926;6.320;2022-12-19T04:11:26;53.72;;;28.15;;
58101;SDS011;52034;51.926;6.320;2022-12-19T04:12:35;55.03;;;29.27;;
58101;SDS011;52034;51.926;6.320;2022-12-19T04:13:50;52.38;;;28.63;;
58101;SDS011;52034;51.926;6.320;2022-12-19T04:14:55;52.05;;;29.70;;
58101;SDS011;52034;51.926;6.320;2022-12-19T04:16:16;52.57;;;28.67;;
58101;SDS011;52034;51.926;6.320;2022-12-19T04:17:29;49.88;;;25.85;;
58101;SDS011;52034;51.926;6.320;2022-12-19T04:18:39;54.90;;;28.40;;
58101;SDS011;52034;51.926;6.320;2022-12-19T04:21:02;54.92;;;27.90;;
58101;SDS011;52034;51.926;6.320;2022-12-19T04:22:11;52.90;;;27.73;;
58101;SDS011;52034;51.926;6.320;2022-12-19T04:23:17;50.10;;;25.52;;
58101;SDS011;52034;51.926;6.320;2022-12-19T04:24:22;53.80;;;26.77;;
58101;SDS011;52034;51.926;6.320;2022-12-19T04:25:28;50.42;;;25.85;;
58101;SDS011;52034;51.926;6.320;2022-12-19T04:26:33;47.08;;;25.63;;
58101;SDS011;52034;51.926;6.320;2022-12-19T04:27:36;55.03;;;27.98;;
58101;SDS011;52034;51.926;6.320;2022-12-19T04:28:51;52.40;;;26.45;;
58101;SDS011;52034;51.926;6.320;2022-12-19T04:29:55;50.55;;;25.65;;
58101;SDS011;52034;51.926;6.320;2022-12-19T04:30:58;51.13;;;27.17;;
58101;SDS011;52034;51.926;6.320;2022-12-19T04:32:01;52.20;;;26.23;;
58101;SDS011;52034;51.926;6.320;2022-12-19T04:33:03;49.85;;;25.15;;
58101;SDS011;52034;51.926;6.320;2022-12-19T04:34:03;51.73;;;27.83;;
58101;SDS011;52034;51.926;6.320;2022-12-19T04:35:04;55.07;;;29.53;;
58101;SDS011;52034;51.926;6.320;2022-12-19T04:36:04;57.50;;;25.47;;
58101;SDS011;52034;51.926;6.320;2022-12-19T04:37:05;49.03;;;25.33;;
58101;SDS011;52034;51.926;6.320;2022-12-19T04:38:06;49.10;;;26.57;;
58101;SDS011;52034;51.926;6.320;2022-12-19T04:39:06;49.70;;;24.07;;
58101;SDS011;52034;51.926;6.320;2022-12-19T04:40:07;52.77;;;27.10;;
58101;SDS011;52034;51.926;6.320;2022-12-19T04:41:09;53.33;;;26.38;;
58101;SDS011;52034;51.926;6.320;2022-12-19T04:42:09;52.57;;;25.40;;
58101;SDS011;52034;51.926;6.320;2022-12-19T04:43:09;48.00;;;25.60;;
58101;SDS011;52034;51.926;6.320;2022-12-19T04:44:10;50.63;;;25.97;;
58101;SDS011;52034;51.926;6.320;2022-12-19T04:45:10;50.17;;;23.77;;
58101;SDS011;52034;51.926;6.320;2022-12-19T04:46:10;48.77;;;24.27;;
58101;SDS011;52034;51.926;6.320;2022-12-19T04:47:11;52.60;;;27.07;;
58101;SDS011;52034;51.926;6.320;2022-12-19T04:48:11;51.53;;;28.87;;
58101;SDS011;52034;51.926;6.320;2022-12-19T04:49:11;56.23;;;28.07;;
58101;SDS011;52034;51.926;6.320;2022-12-19T04:50:12;57.87;;;29.03;;
58101;SDS011;52034;51.926;6.320;2022-12-19T04:51:12;54.47;;;28.37;;
58101;SDS011;52034;51.926;6.320;2022-12-19T04:52:14;57.92;;;29.10;;
58101;SDS011;52034;51.926;6.320;2022-12-19T04:53:14;53.30;;;28.27;;
58101;SDS011;52034;51.926;6.320;2022-12-19T04:54:15;51.47;;;28.40;;
58101;SDS011;52034;51.926;6.320;2022-12-19T04:55:15;51.93;;;27.30;;
58101;SDS011;52034;51.926;6.320;2022-12-19T04:56:16;50.97;;;27.40;;
58101;SDS011;52034;51.926;6.320;2022-12-19T04:57:16;56.17;;;27.70;;
58101;SDS011;52034;51.926;6.320;2022-12-19T04:58:16;57.77;;;27.33;;
58101;SDS011;52034;51.926;6.320;2022-12-19T04:59:17;51.40;;;26.17;;
58101;SDS011;52034;51.926;6.320;2022-12-19T05:00:17;51.13;;;25.17;;
58101;SDS011;52034;51.926;6.320;2022-12-19T05:01:17;52.50;;;26.70;;
58101;SDS011;52034;51.926;6.320;2022-12-19T05:02:18;52.40;;;27.53;;
58101;SDS011;52034;51.926;6.320;2022-12-19T05:03:18;47.60;;;24.30;;
58101;SDS011;52034;51.926;6.320;2022-12-19T05:04:19;51.60;;;25.37;;
58101;SDS011;52034;51.926;6.320;2022-12-19T05:05:19;55.93;;;27.40;;
58101;SDS011;52034;51.926;6.320;2022-12-19T05:06:19;52.40;;;26.03;;
58101;SDS011;52034;51.926;6.320;2022-12-19T05:07:20;46.70;;;24.73;;
58101;SDS011;52034;51.926;6.320;2022-12-19T05:08:20;54.37;;;27.43;;
58101;SDS011;52034;51.926;6.320;2022-12-19T05:09:21;48.53;;;25.73;;
58101;SDS011;52034;51.926;6.320;2022-12-19T05:10:21;52.17;;;25.30;;
58101;SDS011;52034;51.926;6.320;2022-12-19T05:11:21;55.77;;;27.57;;
58101;SDS011;52034;51.926;6.320;2022-12-19T05:12:22;51.27;;;25.87;;
58101;SDS011;52034;51.926;6.320;2022-12-19T05:13:22;57.53;;;28.53;;
58101;SDS011;52034;51.926;6.320;2022-12-19T05:14:22;52.00;;;26.30;;
58101;SDS011;52034;51.926;6.320;2022-12-19T05:15:23;51.77;;;29.23;;
58101;SDS011;52034;51.926;6.320;2022-12-19T05:16:23;50.67;;;28.97;;
58101;SDS011;52034;51.926;6.320;2022-12-19T05:17:24;49.70;;;25.90;;
58101;SDS011;52034;51.926;6.320;2022-12-19T05:18:24;56.70;;;28.47;;
58101;SDS011;52034;51.926;6.320;2022-12-19T05:19:25;55.38;;;27.15;;
58101;SDS011;52034;51.926;6.320;2022-12-19T05:20:25;52.90;;;28.40;;
58101;SDS011;52034;51.926;6.320;2022-12-19T05:21:26;49.43;;;23.63;;
58101;SDS011;52034;51.926;6.320;2022-12-19T05:22:27;52.00;;;25.60;;
58101;SDS011;52034;51.926;6.320;2022-12-19T05:23:28;52.20;;;26.90;;
58101;SDS011;52034;51.926;6.320;2022-12-19T05:24:29;52.20;;;27.80;;
58101;SDS011;52034;51.926;6.320;2022-12-19T05:25:29;53.33;;;28.50;;
58101;SDS011;52034;51.926;6.320;2022-12-19T05:26:29;50.10;;;27.50;;
58101;SDS011;52034;51.926;6.320;2022-12-19T05:27:30;51.13;;;25.63;;
58101;SDS011;52034;51.926;6.320;2022-12-19T05:28:30;52.50;;;27.37;;
58101;SDS011;52034;51.926;6.320;2022-12-19T05:29:31;43.58;;;23.33;;
58101;SDS011;52034;51.926;6.320;2022-12-19T05:30:32;50.83;;;25.35;;
58101;SDS011;52034;51.926;6.320;2022-12-19T05:31:32;47.63;;;25.67;;
58101;SDS011;52034;51.926;6.320;2022-12-19T05:32:33;47.57;;;25.00;;
58101;SDS011;52034;51.926;6.320;2022-12-19T05:33:34;52.80;;;29.20;;
58101;SDS011;52034;51.926;6.320;2022-12-19T05:34:34;47.10;;;25.05;;
58101;SDS011;52034;51.926;6.320;2022-12-19T05:35:35;56.40;;;28.03;;
58101;SDS011;52034;51.926;6.320;2022-12-19T05:36:36;45.25;;;24.88;;
58101;SDS011;52034;51.926;6.320;2022-12-19T05:37:37;49.57;;;24.60;;
58101;SDS011;52034;51.926;6.320;2022-12-19T05:38:37;50.57;;;26.10;;
58101;SDS011;52034;51.926;6.320;2022-12-19T05:39:38;49.10;;;25.77;;
58101;SDS011;52034;51.926;6.320;2022-12-19T05:40:39;44.10;;;24.43;;
58101;SDS011;52034;51.926;6.320;2022-12-19T05:41:42;48.50;;;26.60;;
58101;SDS011;52034;51.926;6.320;2022-12-19T05:42:42;46.00;;;24.50;;
58101;SDS011;52034;51.926;6.320;2022-12-19T05:43:43;48.97;;;24.07;;
58101;SDS011;52034;51.926;6.320;2022-12-19T05:44:44;46.47;;;25.88;;
58101;SDS011;52034;51.926;6.320;2022-12-19T05:45:44;51.97;;;24.77;;
58101;SDS011;52034;51.926;6.320;2022-12-19T05:46:45;46.80;;;24.53;;
58101;SDS011;52034;51.926;6.320;2022-12-19T05:47:45;46.40;;;23.63;;
58101;SDS011;52034;51.926;6.320;2022-12-19T05:48:46;48.87;;;24.93;;
58101;SDS011;52034;51.926;6.320;2022-12-19T05:49:47;47.10;;;26.15;;
58101;SDS011;52034;51.926;6.320;2022-12-19T05:50:48;39.70;;;18.23;;
58101;SDS011;52034;51.926;6.320;2022-12-19T05:51:49;48.75;;;24.52;;
58101;SDS011;52034;51.926;6.320;2022-12-19T05:52:49;43.50;;;23.30;;
58101;SDS011;52034;51.926;6.320;2022-12-19T05:53:50;44.63;;;24.07;;
58101;SDS011;52034;51.926;6.320;2022-12-19T05:54:50;39.50;;;22.40;;
58101;SDS011;52034;51.926;6.320;2022-12-19T05:55:50;41.40;;;23.13;;
58101;SDS011;52034;51.926;6.320;2022-12-19T05:56:51;45.80;;;24.30;;
58101;SDS011;52034;51.926;6.320;2022-12-19T05:57:51;48.37;;;25.13;;
58101;SDS011;52034;51.926;6.320;2022-12-19T05:58:51;42.87;;;24.00;;
58101;SDS011;52034;51.926;6.320;2022-12-19T05:59:53;45.78;;;24.00;;
58101;SDS011;52034;51.926;6.320;2022-12-19T06:00:53;42.27;;;22.80;;
58101;SDS011;52034;51.926;6.320;2022-12-19T06:01:54;36.70;;;19.87;;
58101;SDS011;52034;51.926;6.320;2022-12-19T06:02:54;46.43;;;23.93;;
58101;SDS011;52034;51.926;6.320;2022-12-19T06:03:54;41.07;;;22.57;;
58101;SDS011;52034;51.926;6.320;2022-12-19T06:04:55;39.33;;;20.07;;
58101;SDS011;52034;51.926;6.320;2022-12-19T06:05:55;43.17;;;21.10;;
58101;SDS011;52034;51.926;6.320;2022-12-19T06:06:55;29.57;;;14.70;;
58101;SDS011;52034;51.926;6.320;2022-12-19T06:07:56;40.73;;;19.57;;
58101;SDS011;52034;51.926;6.320;2022-12-19T06:08:57;41.80;;;22.52;;
58101;SDS011;52034;51.926;6.320;2022-12-19T06:09:58;34.53;;;20.05;;
58101;SDS011;52034;51.926;6.320;2022-12-19T06:10:59;40.13;;;22.50;;
58101;SDS011;52034;51.926;6.320;2022-12-19T06:12:01;39.92;;;20.20;;
58101;SDS011;52034;51.926;6.320;2022-12-19T06:13:01;39.50;;;22.70;;
58101;SDS011;52034;51.926;6.320;2022-12-19T06:14:02;43.53;;;22.13;;
58101;SDS011;52034;51.926;6.320;2022-12-19T06:15:02;43.37;;;23.00;;
58101;SDS011;52034;51.926;6.320;2022-12-19T06:16:04;41.57;;;22.23;;
58101;SDS011;52034;51.926;6.320;2022-12-19T06:17:06;39.50;;;21.90;;
58101;SDS011;52034;51.926;6.320;2022-12-19T06:18:06;43.33;;;23.23;;
58101;SDS011;52034;51.926;6.320;2022-12-19T06:19:07;43.77;;;23.20;;
58101;SDS011;52034;51.926;6.320;2022-12-19T06:20:07;38.40;;;20.00;;
58101;SDS011;52034;51.926;6.320;2022-12-19T06:21:10;33.95;;;17.50;;
58101;SDS011;52034;51.926;6.320;2022-12-19T06:22:11;37.10;;;20.00;;
58101;SDS011;52034;51.926;6.320;2022-12-19T06:23:12;40.53;;;21.10;;
58101;SDS011;52034;51.926;6.320;2022-12-19T06:24:12;38.50;;;20.53;;
58101;SDS011;52034;51.926;6.320;2022-12-19T06:25:13;42.77;;;24.23;;
58101;SDS011;52034;51.926;6.320;2022-12-19T06:26:14;44.07;;;23.93;;
58101;SDS011;52034;51.926;6.320;2022-12-19T06:27:16;34.28;;;17.55;;
58101;SDS011;52034;51.926;6.320;2022-12-19T06:28:17;41.73;;;21.20;;
58101;SDS011;52034;51.926;6.320;2022-12-19T06:29:17;34.83;;;19.53;;
58101;SDS011;52034;51.926;6.320;2022-12-19T06:30:17;44.97;;;23.33;;
58101;SDS011;52034;51.926;6.320;2022-12-19T06:31:18;38.50;;;22.20;;
58101;SDS011;52034;51.926;6.320;2022-12-19T06:32:21;38.35;;;21.83;;
58101;SDS011;52034;51.926;6.320;2022-12-19T06:33:21;39.10;;;19.93;;
58101;SDS011;52034;51.926;6.320;2022-12-19T06:34:22;38.13;;;20.73;;
58101;SDS011;52034;51.926;6.320;2022-12-19T06:35:22;37.33;;;21.57;;
58101;SDS011;52034;51.926;6.320;2022-12-19T06:36:24;34.13;;;20.17;;